createdAt,value
2022-09-16T00:00:35.836Z,5.30
2022-09-16T00:03:02.961Z,4.60
2022-09-16T00:05:30.354Z,5.32
2022-09-16T00:07:57.237Z,6.80
2022-09-16T00:10:24.444Z,6.30
2022-09-16T00:12:51.472Z,5.22
2022-09-16T00:15:18.691Z,5.10
2022-09-16T00:17:45.622Z,5.50
2022-09-16T00:20:12.518Z,5.90
2022-09-16T00:22:39.449Z,6.30
2022-09-16T00:25:06.796Z,5.38
2022-09-16T00:27:33.739Z,5.80
2022-09-16T00:30:00.767Z,9.30
2022-09-16T00:32:27.656Z,6.00
2022-09-16T00:34:54.651Z,6.82
2022-09-16T00:37:21.609Z,6.30
2022-09-16T00:39:49.427Z,5.60
2022-09-16T00:42:18.314Z,5.80
2022-09-16T00:45:14.229Z,5.50
2022-09-16T00:47:47.424Z,7.27
2022-09-16T00:50:18.062Z,6.65
2022-09-16T00:52:45.719Z,5.70
2022-09-16T00:55:19.445Z,7.40
2022-09-16T00:57:47.198Z,6.88
2022-09-16T01:00:14.769Z,5.70
2022-09-16T01:02:44.082Z,5.00
2022-09-16T01:05:17.365Z,5.20
2022-09-16T01:07:52.492Z,5.47
2022-09-16T01:10:22.821Z,7.50
2022-09-16T01:13:12.757Z,5.85
2022-09-16T01:15:54.811Z,5.70
2022-09-16T01:18:53.658Z,5.32
2022-09-16T01:21:29.803Z,6.55
2022-09-16T01:24:22.437Z,5.35
2022-09-16T01:27:18.811Z,4.70
2022-09-16T01:29:48.790Z,4.70
2022-09-16T01:32:31.170Z,5.00
2022-09-16T01:35:20.215Z,5.77
2022-09-16T01:38:13.422Z,5.50
2022-09-16T01:40:49.141Z,5.30
2022-09-16T01:43:25.576Z,7.00
2022-09-16T01:46:06.662Z,6.30
2022-09-16T01:48:54.989Z,5.20
2022-09-16T01:51:28.694Z,6.60
2022-09-16T01:54:12.272Z,6.20
2022-09-16T01:56:48.173Z,5.13
2022-09-16T01:59:24.937Z,5.70
2022-09-16T02:01:54.713Z,6.65
2022-09-16T02:04:30.188Z,5.07
2022-09-16T02:06:59.459Z,5.35
2022-09-16T02:09:32.151Z,6.30
2022-09-16T02:12:05.685Z,7.20
2022-09-16T02:14:38.556Z,5.50
2022-09-16T02:17:09.028Z,5.60
2022-09-16T02:19:59.188Z,5.20
2022-09-16T02:22:31.065Z,4.82
2022-09-16T02:25:00.349Z,5.38
2022-09-16T02:27:29.146Z,5.82
2022-09-16T02:30:06.633Z,5.68
2022-09-16T02:32:39.902Z,6.13
2022-09-16T02:35:12.302Z,6.10
2022-09-16T02:37:50.614Z,5.40
2022-09-16T02:40:24.045Z,5.20
2022-09-16T02:42:51.849Z,6.50
2022-09-16T02:45:20.590Z,4.50
2022-09-16T02:48:40.010Z,4.85
2022-09-16T02:51:16.393Z,5.20
2022-09-16T02:53:50.537Z,5.10
2022-09-16T02:56:39.394Z,5.40
2022-09-16T02:59:08.116Z,4.80
2022-09-16T03:01:44.283Z,4.50
2022-09-16T03:04:14.174Z,4.63
2022-09-16T03:06:41.745Z,5.10
2022-09-16T03:09:12.442Z,5.40
2022-09-16T03:11:42.342Z,7.30
2022-09-16T03:14:37.547Z,5.20
2022-09-16T03:17:07.356Z,4.90
2022-09-16T03:19:59.582Z,7.50
2022-09-16T03:22:57.376Z,5.95
2022-09-16T03:25:57.132Z,5.50
2022-09-16T03:28:36.335Z,6.22
2022-09-16T03:31:08.680Z,4.50
2022-09-16T03:33:50.622Z,6.65
2022-09-16T03:36:33.426Z,9.60
2022-09-16T03:39:01.849Z,5.20
2022-09-16T03:41:33.993Z,5.83
2022-09-16T03:44:04.255Z,4.95
2022-09-16T03:46:32.484Z,5.70
2022-09-16T03:48:59.805Z,5.90
2022-09-16T03:51:27.172Z,5.50
2022-09-16T03:53:54.916Z,6.45
2022-09-16T03:56:24.272Z,5.63
2022-09-16T03:58:51.509Z,5.35
2022-09-16T04:01:18.691Z,4.40
2022-09-16T04:03:45.618Z,6.50
2022-09-16T04:06:12.666Z,5.85
2022-09-16T04:08:39.840Z,6.05
2022-09-16T04:11:07.401Z,6.80
2022-09-16T04:13:35.511Z,6.50
2022-09-16T04:16:05.732Z,5.80
2022-09-16T04:18:34.643Z,5.63
2022-09-16T04:21:03.483Z,4.93
2022-09-16T04:23:33.782Z,5.80
2022-09-16T04:26:02.620Z,5.55
2022-09-16T04:28:30.990Z,5.18
2022-09-16T04:31:06.468Z,5.80
2022-09-16T04:33:35.573Z,6.32
2022-09-16T04:36:17.494Z,5.30
2022-09-16T04:38:46.013Z,5.30
2022-09-16T04:41:24.654Z,6.53
2022-09-16T04:43:53.474Z,5.55
2022-09-16T04:46:20.623Z,6.40
2022-09-16T04:48:52.458Z,6.13
2022-09-16T04:51:20.369Z,6.35
2022-09-16T04:53:47.558Z,7.07
2022-09-16T04:56:15.983Z,7.65
2022-09-16T04:58:47.700Z,6.15
2022-09-16T05:01:17.367Z,5.20
2022-09-16T05:03:46.638Z,5.00
2022-09-16T05:06:21.231Z,6.00
2022-09-16T05:08:49.432Z,6.15
2022-09-16T05:11:24.292Z,6.43
2022-09-16T05:13:51.515Z,7.65
2022-09-16T05:16:20.784Z,6.85
2022-09-16T05:18:49.669Z,5.45
2022-09-16T05:21:19.218Z,6.22
2022-09-16T05:23:47.351Z,6.43
2022-09-16T05:26:26.746Z,6.43
2022-09-16T05:28:53.972Z,7.18
2022-09-16T05:31:28.975Z,6.90
2022-09-16T05:34:01.780Z,5.80
2022-09-16T05:36:32.261Z,6.80
2022-09-16T05:39:21.761Z,5.72
2022-09-16T05:41:46.837Z,7.33
2022-09-16T05:44:14.777Z,7.63
2022-09-16T05:46:41.992Z,7.80
2022-09-16T05:49:09.536Z,6.50
2022-09-16T05:51:38.574Z,6.85
2022-09-16T05:54:05.729Z,6.93
2022-09-16T05:56:32.803Z,7.13
2022-09-16T05:59:00.745Z,7.20
2022-09-16T06:01:31.202Z,7.60
2022-09-16T06:04:00.220Z,6.30
2022-09-16T06:06:30.963Z,6.05
2022-09-16T06:08:59.962Z,7.22
2022-09-16T06:11:28.421Z,6.00
2022-09-16T06:13:57.647Z,8.20
2022-09-16T06:16:28.333Z,6.25
2022-09-16T06:18:56.012Z,6.45
2022-09-16T06:21:24.058Z,8.80
2022-09-16T06:23:51.359Z,7.90
2022-09-16T06:26:21.287Z,7.28
2022-09-16T06:28:49.418Z,6.60
2022-09-16T06:31:27.161Z,7.47
2022-09-16T06:33:55.424Z,6.70
2022-09-16T06:36:32.308Z,6.85
2022-09-16T06:38:59.296Z,7.88
2022-09-16T06:41:26.212Z,7.55
2022-09-16T06:43:53.483Z,6.80
2022-09-16T06:46:28.650Z,9.32
2022-09-16T06:48:59.333Z,8.35
2022-09-16T06:51:31.603Z,9.77
2022-09-16T06:54:06.958Z,6.80
2022-09-16T06:56:36.287Z,6.65
2022-09-16T06:59:03.932Z,7.93
2022-09-16T07:01:31.843Z,8.60
2022-09-16T07:04:02.205Z,8.18
2022-09-16T07:06:51.068Z,9.00
2022-09-16T07:09:17.346Z,7.40
2022-09-16T07:11:44.269Z,8.87
2022-09-16T07:14:11.193Z,7.75
2022-09-16T07:16:38.165Z,8.35
2022-09-16T07:19:05.348Z,10.18
2022-09-16T07:21:32.711Z,7.93
2022-09-16T07:24:01.559Z,8.20
2022-09-16T07:26:31.202Z,7.90
2022-09-16T07:29:01.113Z,9.32
2022-09-16T07:31:31.086Z,8.18
2022-09-16T07:34:03.674Z,8.48
2022-09-16T07:36:36.986Z,7.80
2022-09-16T07:39:05.075Z,8.30
2022-09-16T07:41:40.770Z,9.13
2022-09-16T07:44:10.056Z,7.15
2022-09-16T07:46:37.334Z,7.80
2022-09-16T07:49:06.560Z,7.50
2022-09-16T07:51:33.838Z,7.77
2022-09-16T07:54:04.694Z,9.18
2022-09-16T07:56:34.499Z,7.80
2022-09-16T07:59:06.045Z,7.35
2022-09-16T08:01:33.388Z,7.60
2022-09-16T08:04:01.586Z,7.20
2022-09-16T08:06:30.896Z,6.30
2022-09-16T08:09:10.040Z,5.50
2022-09-16T08:11:46.808Z,7.03
2022-09-16T08:14:13.757Z,4.88
2022-09-16T08:16:40.699Z,4.80
2022-09-16T08:19:09.149Z,4.70
2022-09-16T08:21:35.957Z,4.38
2022-09-16T08:24:02.960Z,4.43
2022-09-16T08:26:29.917Z,5.28
2022-09-16T08:29:08.428Z,5.30
2022-09-16T08:31:36.820Z,5.28
2022-09-16T08:34:03.897Z,4.65
2022-09-16T08:36:33.220Z,5.00
2022-09-16T08:39:00.109Z,4.78
2022-09-16T08:42:06.529Z,5.00
2022-09-16T08:44:50.658Z,5.10
2022-09-16T08:47:48.913Z,4.88
2022-09-16T08:50:22.185Z,4.20
2022-09-16T08:52:51.385Z,4.50
2022-09-16T08:55:31.477Z,4.90
2022-09-16T08:58:22.776Z,4.10
2022-09-16T09:00:56.585Z,4.40
2022-09-16T09:03:37.775Z,3.90
2022-09-16T09:06:43.797Z,3.80
2022-09-16T09:09:32.052Z,3.50
2022-09-16T09:12:33.662Z,3.63
2022-09-16T09:15:37.873Z,4.30
2022-09-16T09:18:43.632Z,4.20
2022-09-16T09:21:27.516Z,4.50
2022-09-16T09:24:13.006Z,4.30
2022-09-16T09:26:48.648Z,4.40
2022-09-16T09:29:54.413Z,4.50
2022-09-16T09:32:48.102Z,3.70
2022-09-16T09:35:24.674Z,3.70
2022-09-16T09:38:19.798Z,3.90
2022-09-16T09:40:54.646Z,4.20
2022-09-16T09:43:43.206Z,3.80
2022-09-16T09:46:23.418Z,3.90
2022-09-16T09:49:21.593Z,3.80
2022-09-16T09:51:54.606Z,4.32
2022-09-16T09:54:35.322Z,4.70
2022-09-16T09:57:14.434Z,4.15
2022-09-16T09:59:48.578Z,4.30
2022-09-16T10:02:18.554Z,4.47
2022-09-16T10:04:46.157Z,5.40
2022-09-16T10:07:16.113Z,3.78
2022-09-16T10:09:59.222Z,3.90
2022-09-16T10:12:31.629Z,3.80
2022-09-16T10:14:59.590Z,4.50
2022-09-16T10:17:30.186Z,5.15
2022-09-16T10:20:00.774Z,4.53
2022-09-16T10:22:30.338Z,4.20
2022-09-16T10:25:00.168Z,4.30
2022-09-16T10:27:35.963Z,4.50
2022-09-16T10:33:10.861Z,5.40
2022-09-16T10:35:41.806Z,4.70
2022-09-16T10:38:12.988Z,4.68
2022-09-16T10:41:01.209Z,5.20
2022-09-16T10:43:30.649Z,4.70
2022-09-16T10:45:58.505Z,4.75
2022-09-16T10:48:29.270Z,5.00
2022-09-16T10:51:02.275Z,4.35
2022-09-16T10:53:44.008Z,5.30
2022-09-16T10:56:35.432Z,5.38
2022-09-16T10:59:10.485Z,4.70
2022-09-16T11:01:47.676Z,4.65
2022-09-16T11:04:43.914Z,5.00
2022-09-16T11:07:28.854Z,5.20
2022-09-16T11:10:20.064Z,6.30
2022-09-16T11:13:19.812Z,5.10
2022-09-16T11:16:01.072Z,5.05
2022-09-16T11:18:55.547Z,5.18
2022-09-16T11:22:03.056Z,5.20
2022-09-16T11:24:36.000Z,5.80
2022-09-16T11:27:14.018Z,6.47
2022-09-16T11:29:57.572Z,5.45
2022-09-16T11:32:49.538Z,5.30
2022-09-16T11:35:31.993Z,5.90
2022-09-16T11:38:13.872Z,5.38
2022-09-16T11:40:40.747Z,5.30
2022-09-16T11:43:40.147Z,5.33
2022-09-16T11:46:23.809Z,5.40
2022-09-16T11:49:13.762Z,5.80
2022-09-16T11:51:58.718Z,5.67
2022-09-16T11:54:47.546Z,5.70
2022-09-16T11:57:29.577Z,5.00
2022-09-16T12:00:07.033Z,5.03
2022-09-16T12:02:52.314Z,4.68
2022-09-16T12:05:29.677Z,4.70
2022-09-16T12:08:08.538Z,5.55
2022-09-16T12:10:43.422Z,5.65
2022-09-16T12:13:17.568Z,4.50
2022-09-16T12:15:58.338Z,4.70
2022-09-16T12:18:39.002Z,5.60
2022-09-16T12:21:09.089Z,4.60
2022-09-16T12:23:41.965Z,5.00
2022-09-16T12:26:33.848Z,5.55
2022-09-16T12:29:21.486Z,5.40
2022-09-16T12:32:08.871Z,5.20
2022-09-16T12:34:53.297Z,5.25
2022-09-16T12:37:33.744Z,5.27
2022-09-16T12:40:02.380Z,5.43
2022-09-16T12:42:38.132Z,4.53
2022-09-16T12:45:15.961Z,4.97
2022-09-16T12:48:20.230Z,6.25
2022-09-16T12:51:11.101Z,5.10
2022-09-16T12:54:00.620Z,5.38
2022-09-16T12:57:04.726Z,5.00
2022-09-16T12:59:47.030Z,5.18
2022-09-16T13:02:24.071Z,5.30
2022-09-16T13:04:54.821Z,5.50
2022-09-16T13:07:28.170Z,5.03
2022-09-16T13:10:19.048Z,6.20
2022-09-16T13:12:56.768Z,6.15
2022-09-16T13:15:30.535Z,5.63
2022-09-16T13:18:14.481Z,5.80
2022-09-16T13:20:47.833Z,5.45
2022-09-16T13:23:21.432Z,5.72
2022-09-16T13:26:09.434Z,5.57
2022-09-16T13:28:41.134Z,6.10
2022-09-16T13:31:17.854Z,5.65
2022-09-16T13:33:50.240Z,5.63
2022-09-16T13:36:30.922Z,6.93
2022-09-16T13:39:06.488Z,4.70
2022-09-16T13:41:37.949Z,5.40
2022-09-16T13:44:30.338Z,6.17
2022-09-16T13:47:19.237Z,4.70
2022-09-16T13:49:56.272Z,5.70
2022-09-16T13:52:36.109Z,5.07
2022-09-16T13:55:10.465Z,7.35
2022-09-16T13:58:16.917Z,5.93
2022-09-16T14:01:27.944Z,5.75
2022-09-16T14:04:15.265Z,5.00
2022-09-16T14:06:59.984Z,5.80
2022-09-16T14:09:47.245Z,5.40
2022-09-16T14:12:16.980Z,6.38
2022-09-16T14:14:47.463Z,4.97
2022-09-16T14:17:24.018Z,6.15
2022-09-16T14:19:56.238Z,6.13
2022-09-16T14:22:25.756Z,5.57
2022-09-16T14:25:05.735Z,5.53
2022-09-16T14:27:40.784Z,5.90
2022-09-16T14:30:17.228Z,5.80
2022-09-16T14:32:46.002Z,6.82
2022-09-16T14:35:24.640Z,5.28
2022-09-16T14:37:58.887Z,5.25
2022-09-16T14:40:27.263Z,5.15
2022-09-16T14:43:12.333Z,9.50
2022-09-16T14:45:47.023Z,5.65
2022-09-16T14:48:15.609Z,5.70
2022-09-16T14:50:49.211Z,5.88
2022-09-16T14:53:36.343Z,5.88
2022-09-16T14:56:05.052Z,5.55
2022-09-16T14:58:33.822Z,6.60
2022-09-16T15:01:12.499Z,5.47
2022-09-16T15:03:53.688Z,5.30
2022-09-16T15:06:28.973Z,5.03
2022-09-16T15:09:03.149Z,6.03
2022-09-16T15:11:50.230Z,5.85
2022-09-16T15:14:18.711Z,6.18
2022-09-16T15:17:00.762Z,4.72
2022-09-16T15:19:35.374Z,5.50
2022-09-16T15:22:04.072Z,5.60
2022-09-16T15:24:33.995Z,6.15
2022-09-16T15:27:02.521Z,7.18
2022-09-16T15:29:32.788Z,5.55
2022-09-16T15:32:42.780Z,5.80
2022-09-16T15:35:30.768Z,6.03
2022-09-16T15:37:58.051Z,5.22
2022-09-16T15:40:28.058Z,6.40
2022-09-16T15:43:27.903Z,7.18
2022-09-16T15:46:03.298Z,7.55
2022-09-16T15:48:36.369Z,8.27
2022-09-16T15:51:10.620Z,11.27
2022-09-16T15:53:45.686Z,9.38
2022-09-16T15:56:18.468Z,9.68
2022-09-16T15:58:50.938Z,6.68
2022-09-16T16:01:33.283Z,8.88
2022-09-16T16:04:02.400Z,7.90
2022-09-16T16:06:49.777Z,5.90
2022-09-16T16:09:28.529Z,5.38
2022-09-16T16:12:05.272Z,5.47
2022-09-16T16:14:33.373Z,4.78
2022-09-16T16:17:13.842Z,5.80
2022-09-16T16:19:43.641Z,5.00
2022-09-16T16:22:11.929Z,5.68
2022-09-16T16:24:39.315Z,4.97
2022-09-16T16:27:06.590Z,6.15
2022-09-16T16:29:33.417Z,6.80
2022-09-16T16:32:06.454Z,5.17
2022-09-16T16:34:38.981Z,5.60
2022-09-16T16:37:07.410Z,5.20
2022-09-16T16:39:35.198Z,8.03
2022-09-16T16:42:05.058Z,5.60
2022-09-16T16:44:32.545Z,6.10
2022-09-16T16:46:59.644Z,5.57
2022-09-16T16:49:26.813Z,5.00
2022-09-16T16:51:57.967Z,5.97
2022-09-16T16:54:26.358Z,4.95
2022-09-16T16:56:54.156Z,5.23
2022-09-16T16:59:21.848Z,4.90
2022-09-16T17:01:52.374Z,5.63
2022-09-16T17:04:19.398Z,5.33
2022-09-16T17:06:46.895Z,6.00
2022-09-16T17:09:16.055Z,5.40
2022-09-16T17:11:54.975Z,4.95
2022-09-16T17:14:24.075Z,5.82
2022-09-16T17:16:51.827Z,6.00
2022-09-16T17:19:19.577Z,5.40
2022-09-16T17:21:48.050Z,6.82
2022-09-16T17:24:15.121Z,7.03
2022-09-16T17:26:42.116Z,6.13
2022-09-16T17:29:15.460Z,6.03
2022-09-16T17:31:43.302Z,6.07
2022-09-16T17:34:13.014Z,4.97
2022-09-16T17:36:43.325Z,6.13
2022-09-16T17:39:18.875Z,6.05
2022-09-16T17:41:48.647Z,6.30
2022-09-16T17:44:16.813Z,6.15
2022-09-16T17:46:44.502Z,6.20
2022-09-16T17:49:21.230Z,5.10
2022-09-16T17:51:49.107Z,5.63
2022-09-16T17:54:16.101Z,6.13
2022-09-16T17:56:43.417Z,5.20
2022-09-16T17:59:11.763Z,6.32
2022-09-16T18:01:38.657Z,5.22
2022-09-16T18:04:05.614Z,5.80
2022-09-16T18:06:39.293Z,7.88
2022-09-16T18:09:09.407Z,7.18
2022-09-16T18:11:37.489Z,6.13
2022-09-16T18:14:06.652Z,6.60
2022-09-16T18:16:33.894Z,5.50
2022-09-16T18:19:02.360Z,5.40
2022-09-16T18:21:29.937Z,6.10
2022-09-16T18:23:58.997Z,6.00
2022-09-16T18:26:26.977Z,6.65
2022-09-16T18:29:12.614Z,4.68
2022-09-16T18:31:42.707Z,5.53
2022-09-16T18:34:09.986Z,4.15
2022-09-16T18:36:39.156Z,4.68
2022-09-16T18:39:07.571Z,5.00
2022-09-16T18:41:37.623Z,4.35
2022-09-16T18:44:07.611Z,5.47
2022-09-16T18:46:36.586Z,5.25
2022-09-16T18:49:04.730Z,4.63
2022-09-16T18:51:37.527Z,5.10
2022-09-16T18:54:18.408Z,4.70
2022-09-16T18:56:45.784Z,4.43
2022-09-16T18:59:22.432Z,5.40
2022-09-16T19:01:52.241Z,4.60
2022-09-16T19:04:22.466Z,7.90
2022-09-16T19:06:52.049Z,5.88
2022-09-16T19:09:21.535Z,4.25
2022-09-16T19:11:49.580Z,3.75
2022-09-16T19:14:16.562Z,4.50
2022-09-16T19:16:45.140Z,4.15
2022-09-16T19:19:14.719Z,4.90
2022-09-16T19:21:42.946Z,4.30
2022-09-16T19:24:18.849Z,4.35
2022-09-16T19:26:46.766Z,6.38
2022-09-16T19:29:15.673Z,4.70
2022-09-16T19:31:45.202Z,4.90
2022-09-16T19:34:13.569Z,5.22
2022-09-16T19:36:41.321Z,4.60
2022-09-16T19:39:09.557Z,4.50
2022-09-16T19:41:38.118Z,5.60
2022-09-16T19:44:08.041Z,5.03
2022-09-16T19:46:37.305Z,4.47
2022-09-16T19:49:05.619Z,5.13
2022-09-16T19:51:33.270Z,4.30
2022-09-16T19:54:01.184Z,5.18
2022-09-16T19:56:33.807Z,4.55
2022-09-16T19:59:04.239Z,3.75
2022-09-16T20:01:33.813Z,4.70
2022-09-16T20:04:02.787Z,3.85
2022-09-16T20:06:38.639Z,4.85
2022-09-16T20:09:11.480Z,4.50
2022-09-16T20:11:41.106Z,5.30
2022-09-16T20:14:16.422Z,3.95
2022-09-16T20:16:43.661Z,4.90
2022-09-16T20:19:13.389Z,4.33
2022-09-16T20:21:40.725Z,6.40
2022-09-16T20:24:13.645Z,3.90
2022-09-16T20:26:40.521Z,5.20
2022-09-16T20:29:07.490Z,5.63
2022-09-16T20:31:36.515Z,6.03
2022-09-16T20:34:04.658Z,4.00
2022-09-16T20:36:37.202Z,4.30
2022-09-16T20:39:04.965Z,4.63
2022-09-16T20:41:33.601Z,4.80
2022-09-16T20:44:00.811Z,4.15
2022-09-16T20:46:30.401Z,3.78
2022-09-16T20:48:59.628Z,5.45
2022-09-16T20:51:29.028Z,4.77
2022-09-16T20:54:07.716Z,4.97
2022-09-16T20:56:38.816Z,4.97
2022-09-16T20:59:08.232Z,4.30
2022-09-16T21:01:37.097Z,5.00
2022-09-16T21:04:06.837Z,3.80
2022-09-16T21:06:35.612Z,3.90
2022-09-16T21:09:05.444Z,4.93
2022-09-16T21:11:36.434Z,3.80
2022-09-16T21:14:09.061Z,5.10
2022-09-16T21:16:38.880Z,4.78
2022-09-16T21:19:09.785Z,4.68
2022-09-16T21:21:39.598Z,5.03
2022-09-16T21:24:07.366Z,4.70
2022-09-16T21:26:35.808Z,4.60
2022-09-16T21:29:05.334Z,6.13
2022-09-16T21:31:34.062Z,4.97
2022-09-16T21:34:03.144Z,4.57
2022-09-16T21:36:31.200Z,4.00
2022-09-16T21:38:59.239Z,4.50
2022-09-16T21:41:26.657Z,4.63
2022-09-16T21:43:58.229Z,3.80
2022-09-16T21:46:31.815Z,3.80
2022-09-16T21:49:02.104Z,5.38
2022-09-16T21:51:37.429Z,4.10
2022-09-16T21:54:07.308Z,5.68
2022-09-16T21:56:37.596Z,4.22
2022-09-16T21:59:04.768Z,4.40
2022-09-16T22:01:32.082Z,5.80
2022-09-16T22:04:01.381Z,4.73
2022-09-16T22:06:28.752Z,5.60
2022-09-16T22:08:57.597Z,4.97
2022-09-16T22:11:26.282Z,3.70
2022-09-16T22:13:54.606Z,4.00
2022-09-16T22:16:29.597Z,4.13
2022-09-16T22:18:59.230Z,3.78
2022-09-16T22:21:28.418Z,3.80
2022-09-16T22:23:55.250Z,4.57
2022-09-16T22:26:23.614Z,4.40
2022-09-16T22:28:50.922Z,5.05
2022-09-16T22:31:19.642Z,4.20
2022-09-16T22:33:48.089Z,5.70
2022-09-16T22:36:17.588Z,5.45
2022-09-16T22:38:52.868Z,3.70
2022-09-16T22:41:20.657Z,4.50
2022-09-16T22:43:49.661Z,5.00
2022-09-16T22:46:19.204Z,4.70
2022-09-16T22:48:46.800Z,5.00
2022-09-16T22:51:15.478Z,5.28
2022-09-16T22:53:43.678Z,4.40
2022-09-16T22:56:22.205Z,4.40
2022-09-16T22:58:56.241Z,3.90
2022-09-16T23:01:29.081Z,3.88
2022-09-16T23:03:59.275Z,4.60
2022-09-16T23:06:28.917Z,5.27
2022-09-16T23:08:56.841Z,4.18
2022-09-16T23:11:26.793Z,4.78
2022-09-16T23:13:54.189Z,4.20
2022-09-16T23:16:25.247Z,4.70
2022-09-16T23:18:52.974Z,5.57
2022-09-16T23:21:21.589Z,3.80
2022-09-16T23:23:53.962Z,4.00
2022-09-16T23:26:23.866Z,4.17
2022-09-16T23:28:52.874Z,4.47
2022-09-16T23:31:22.066Z,3.97
2022-09-16T23:33:49.077Z,4.20
2022-09-16T23:36:17.826Z,4.20
2022-09-16T23:38:45.948Z,4.03
2022-09-16T23:41:16.331Z,5.75
2022-09-16T23:43:44.005Z,5.80
2022-09-16T23:46:14.178Z,3.90
2022-09-16T23:48:43.141Z,3.97
2022-09-16T23:51:10.497Z,4.00
2022-09-16T23:53:38.186Z,4.15
2022-09-16T23:56:10.129Z,6.18
2022-09-16T23:58:37.293Z,5.60
